createdAt,value
2018-09-24T00:00:42.155Z,96.48
2018-09-24T00:01:42.128Z,96.08
2018-09-24T00:02:42.120Z,96.48
2018-09-24T00:03:42.112Z,96.08
2018-09-24T00:04:42.119Z,96.28
2018-09-24T00:05:42.136Z,95.46
2018-09-24T00:06:42.077Z,95.97
2018-09-24T00:07:42.062Z,95.97
2018-09-24T00:08:42.050Z,95.67
2018-09-24T00:09:42.045Z,96.39
2018-09-24T00:10:42.061Z,95.97
2018-09-24T00:11:42.103Z,95.67
2018-09-24T00:12:42.008Z,95.97
2018-09-24T00:13:42.001Z,95.56
2018-09-24T00:14:41.995Z,96.18
2018-09-24T00:15:41.973Z,95.97
2018-09-24T00:16:42.005Z,95.87
2018-09-24T00:17:42.028Z,96.39
2018-09-24T00:18:41.945Z,96.08
2018-09-24T00:19:41.932Z,96.43
2018-09-24T00:20:41.922Z,96.12
2018-09-24T00:21:41.910Z,95.92
2018-09-24T00:22:41.894Z,96.22
2018-09-24T00:23:41.941Z,97.05
2018-09-24T00:24:41.877Z,97.05
2018-09-24T00:25:41.866Z,96.43
2018-09-24T00:26:41.849Z,97.30
2018-09-24T00:27:41.843Z,97.36
2018-09-24T00:28:41.832Z,97.09
2018-09-24T00:29:41.873Z,97.30
2018-09-24T00:30:41.809Z,97.61
2018-09-24T00:31:41.800Z,97.40
2018-09-24T00:32:41.786Z,97.40
2018-09-24T00:33:41.783Z,97.19
2018-09-24T00:34:41.762Z,97.24
2018-09-24T00:35:41.815Z,97.40
2018-09-24T00:36:41.780Z,97.61
2018-09-24T00:37:41.735Z,97.34
2018-09-24T00:38:41.719Z,97.50
2018-09-24T00:39:41.747Z,97.44
2018-09-24T00:40:41.710Z,97.34
2018-09-24T00:41:41.723Z,97.81
2018-09-24T00:42:41.693Z,97.55
2018-09-24T00:43:41.666Z,97.65
2018-09-24T00:44:41.659Z,97.65
2018-09-24T00:45:41.651Z,97.55
2018-09-24T00:46:41.637Z,97.44
2018-09-24T00:47:41.674Z,97.24
2018-09-24T00:48:41.612Z,97.86
2018-09-24T00:49:41.611Z,97.24
2018-09-24T00:50:41.624Z,97.34
2018-09-24T00:51:41.626Z,97.65
2018-09-24T00:52:41.568Z,97.65
2018-09-24T00:53:41.606Z,97.34
2018-09-24T00:54:41.568Z,97.44
2018-09-24T00:55:41.545Z,97.86
2018-09-24T00:56:41.522Z,98.06
2018-09-24T00:57:41.508Z,97.90
2018-09-24T00:58:41.500Z,97.86
2018-09-24T00:59:41.520Z,97.75
2018-09-24T01:00:41.474Z,97.60
2018-09-24T01:01:41.500Z,97.80
2018-09-24T01:02:41.454Z,97.24
2018-09-24T01:03:41.442Z,97.60
2018-09-24T01:04:41.443Z,97.55
2018-09-24T01:05:41.459Z,97.69
2018-09-24T01:06:41.411Z,97.65
2018-09-24T01:07:41.440Z,97.60
2018-09-24T01:08:41.387Z,97.55
2018-09-24T01:09:41.379Z,97.60
2018-09-24T01:10:41.370Z,97.69
2018-09-24T01:11:41.395Z,97.86
2018-09-24T01:12:41.351Z,97.65
2018-09-24T01:13:41.352Z,97.49
2018-09-24T01:14:41.325Z,97.80
2018-09-24T01:15:41.307Z,97.69
2018-09-24T01:16:41.301Z,97.69
2018-09-24T01:17:41.328Z,97.55
2018-09-24T01:18:41.274Z,97.80
2018-09-24T01:19:41.280Z,97.49
2018-09-24T01:20:41.252Z,97.39
2018-09-24T01:21:41.242Z,97.69
2018-09-24T01:22:41.241Z,97.60
2018-09-24T01:23:41.260Z,97.34
2018-09-24T01:24:41.207Z,97.34
2018-09-24T01:25:41.214Z,97.44
2018-09-24T01:26:41.185Z,97.14
2018-09-24T01:27:41.179Z,97.03
2018-09-24T01:28:41.186Z,97.49
2018-09-24T01:29:41.195Z,97.65
2018-09-24T01:30:41.141Z,97.90
2018-09-24T01:31:41.140Z,97.24
2018-09-24T01:32:41.144Z,97.55
2018-09-24T01:33:41.110Z,97.24
2018-09-24T01:34:41.100Z,97.44
2018-09-24T01:35:41.121Z,97.44
2018-09-24T01:36:41.076Z,97.65
2018-09-24T01:37:41.074Z,97.55
2018-09-24T01:38:41.093Z,97.34
2018-09-24T01:39:41.046Z,97.34
2018-09-24T01:40:41.043Z,97.55
2018-09-24T01:41:41.073Z,97.49
2018-09-24T01:42:41.011Z,97.60
2018-09-24T01:43:40.999Z,97.14
2018-09-24T01:44:41.023Z,97.24
2018-09-24T01:45:40.976Z,97.28
2018-09-24T01:46:40.976Z,97.69
2018-09-24T01:47:41.004Z,97.60
2018-09-24T01:48:40.946Z,97.60
2018-09-24T01:49:40.936Z,97.80
2018-09-24T01:50:40.950Z,97.80
2018-09-24T01:51:40.916Z,97.80
2018-09-24T01:52:40.912Z,97.69
2018-09-24T01:53:40.936Z,97.60
2018-09-24T01:54:40.880Z,97.90
2018-09-24T01:55:40.871Z,97.39
2018-09-24T01:56:40.883Z,97.60
2018-09-24T01:57:40.846Z,97.39
2018-09-24T01:58:40.836Z,97.39
2018-09-24T01:59:40.868Z,97.18
2018-09-24T02:00:40.811Z,96.97
2018-09-24T02:01:40.808Z,97.18
2018-09-24T02:02:40.812Z,97.18
2018-09-24T02:03:40.789Z,97.08
2018-09-24T02:04:40.785Z,97.39
2018-09-24T02:05:40.811Z,97.43
2018-09-24T02:06:40.755Z,97.33
2018-09-24T02:07:40.742Z,96.67
2018-09-24T02:08:40.758Z,96.46
2018-09-24T02:09:40.734Z,96.97
2018-09-24T02:10:40.700Z,97.02
2018-09-24T02:11:40.730Z,96.77
2018-09-24T02:12:40.683Z,96.61
2018-09-24T02:13:40.675Z,96.56
2018-09-24T02:14:40.671Z,97.28
2018-09-24T02:15:40.658Z,96.61
2018-09-24T02:16:40.641Z,96.92
2018-09-24T02:17:40.680Z,97.33
2018-09-24T02:18:40.619Z,97.33
2018-09-24T02:19:40.602Z,97.23
2018-09-24T02:20:40.595Z,97.43
2018-09-24T02:21:40.594Z,97.23
2018-09-24T02:22:40.592Z,97.43
2018-09-24T02:23:40.616Z,96.81
2018-09-24T02:24:40.546Z,97.23
2018-09-24T02:25:40.540Z,97.53
2018-09-24T02:26:40.531Z,97.23
2018-09-24T02:27:40.514Z,97.74
2018-09-24T02:28:40.529Z,97.43
2018-09-24T02:29:40.527Z,97.74
2018-09-24T02:30:40.483Z,97.74
2018-09-24T02:31:40.486Z,97.68
2018-09-24T02:32:40.463Z,97.38
2018-09-24T02:33:40.460Z,97.89
2018-09-24T02:34:40.459Z,97.58
2018-09-24T02:35:40.459Z,97.78
2018-09-24T02:36:40.425Z,97.53
2018-09-24T02:37:40.418Z,97.58
2018-09-24T02:38:40.444Z,97.38
2018-09-24T02:39:40.395Z,97.48
2018-09-24T02:40:40.393Z,97.58
2018-09-24T02:41:40.406Z,97.78
2018-09-24T02:42:40.362Z,97.89
2018-09-24T02:43:40.344Z,97.48
2018-09-24T02:44:40.330Z,97.74
2018-09-24T02:45:40.325Z,97.48
2018-09-24T02:46:40.318Z,97.33
2018-09-24T02:47:40.345Z,97.33
2018-09-24T02:48:40.307Z,97.33
2018-09-24T02:49:40.292Z,97.43
2018-09-24T02:50:40.315Z,97.43
2018-09-24T02:51:40.333Z,97.38
2018-09-24T02:52:40.262Z,97.43
2018-09-24T02:53:40.276Z,97.27
2018-09-24T02:54:40.229Z,97.48
2018-09-24T02:55:40.211Z,97.48
2018-09-24T02:56:40.200Z,97.68
2018-09-24T02:57:40.222Z,97.78
2018-09-24T02:58:40.180Z,97.78
2018-09-24T02:59:40.199Z,97.78
2018-09-24T03:00:40.154Z,97.48
2018-09-24T03:01:40.140Z,97.17
2018-09-24T03:02:40.150Z,97.58
2018-09-24T03:03:40.118Z,97.78
2018-09-24T03:04:40.113Z,97.58
2018-09-24T03:05:40.129Z,97.38
2018-09-24T03:06:40.090Z,97.27
2018-09-24T03:07:40.075Z,96.75
2018-09-24T03:08:40.081Z,97.58
2018-09-24T03:09:40.073Z,97.48
2018-09-24T03:10:40.042Z,97.78
2018-09-24T03:11:40.086Z,97.38
2018-09-24T03:12:40.018Z,97.58
2018-09-24T03:13:40.010Z,97.21
2018-09-24T03:14:40.005Z,97.38
2018-09-24T03:15:39.998Z,97.58
2018-09-24T03:16:39.980Z,97.38
2018-09-24T03:17:40.016Z,97.27
2018-09-24T03:18:39.980Z,97.38
2018-09-24T03:19:39.945Z,97.06
2018-09-24T03:20:39.934Z,97.52
2018-09-24T03:21:39.938Z,97.21
2018-09-24T03:22:39.911Z,97.21
2018-09-24T03:23:39.935Z,97.42
2018-09-24T03:24:39.886Z,97.52
2018-09-24T03:25:39.887Z,97.31
2018-09-24T03:26:39.879Z,97.42
2018-09-24T03:27:39.900Z,97.56
2018-09-24T03:28:39.862Z,97.67
2018-09-24T03:29:39.879Z,97.77
2018-09-24T03:30:39.826Z,97.52
2018-09-24T03:31:39.822Z,97.52
2018-09-24T03:32:39.805Z,97.73
2018-09-24T03:33:39.790Z,97.52
2018-09-24T03:34:39.779Z,97.31
2018-09-24T03:35:39.826Z,96.70
2018-09-24T03:36:39.769Z,96.91
2018-09-24T03:37:39.758Z,96.70
2018-09-24T03:38:39.739Z,97.01
2018-09-24T03:39:39.728Z,97.11
2018-09-24T03:40:39.709Z,97.42
2018-09-24T03:41:39.729Z,96.80
2018-09-24T03:42:39.687Z,97.11
2018-09-24T03:43:39.678Z,96.80
2018-09-24T03:44:39.682Z,97.56
2018-09-24T03:45:39.653Z,97.42
2018-09-24T03:46:39.641Z,96.74
2018-09-24T03:47:39.661Z,97.31
2018-09-24T03:48:39.619Z,97.36
2018-09-24T03:49:39.616Z,97.36
2018-09-24T03:50:39.598Z,97.31
2018-09-24T03:51:39.588Z,97.36
2018-09-24T03:52:39.577Z,97.56
2018-09-24T03:53:39.604Z,96.64
2018-09-24T03:54:39.573Z,97.16
2018-09-24T03:55:39.548Z,97.05
2018-09-24T03:56:39.531Z,97.36
2018-09-24T03:57:39.532Z,97.26
2018-09-24T03:58:39.509Z,97.01
2018-09-24T03:59:39.547Z,96.95
2018-09-24T04:00:39.491Z,97.16
2018-09-24T04:01:39.483Z,97.36
2018-09-24T04:02:39.476Z,97.36
2018-09-24T04:03:39.455Z,96.44
2018-09-24T04:04:39.468Z,96.84
2018-09-24T04:05:39.467Z,96.64
2018-09-24T04:06:39.422Z,96.74
2018-09-24T04:07:39.417Z,96.53
2018-09-24T04:08:39.408Z,96.53
2018-09-24T04:09:39.448Z,97.36
2018-09-24T04:10:39.382Z,96.53
2018-09-24T04:11:39.633Z,96.23
2018-09-24T04:12:39.432Z,96.33
2018-09-24T04:13:39.487Z,96.44
2018-09-24T04:14:39.360Z,96.44
2018-09-24T04:15:39.414Z,96.84
2018-09-24T04:16:39.320Z,96.84
2018-09-24T04:17:39.347Z,96.53
2018-09-24T04:18:39.295Z,96.64
2018-09-24T04:19:39.368Z,96.12
2018-09-24T04:20:39.273Z,96.74
2018-09-24T04:21:39.272Z,96.84
2018-09-24T04:22:39.297Z,96.74
2018-09-24T04:23:39.322Z,96.95
2018-09-24T04:24:39.232Z,96.44
2018-09-24T04:25:39.263Z,97.56
2018-09-24T04:26:39.207Z,96.53
2018-09-24T04:27:39.195Z,96.44
2018-09-24T04:28:48.148Z,96.64
2018-09-24T04:29:39.170Z,96.74
2018-09-24T04:30:39.160Z,95.92
2018-09-24T04:31:39.160Z,96.33
2018-09-24T04:32:39.258Z,96.44
2018-09-24T04:33:39.188Z,96.33
2018-09-24T04:34:39.183Z,96.33
2018-09-24T04:35:39.139Z,96.44
2018-09-24T04:36:39.136Z,96.23
2018-09-24T04:37:39.166Z,96.53
2018-09-24T04:38:39.080Z,96.44
2018-09-24T04:39:39.186Z,97.09
2018-09-24T04:40:39.092Z,96.33
2018-09-24T04:41:39.064Z,96.53
2018-09-24T04:42:39.435Z,96.44
2018-09-24T04:43:39.121Z,96.53
2018-09-24T04:44:39.030Z,96.33
2018-09-24T04:45:39.238Z,95.92
2018-09-24T04:46:40.059Z,96.23
2018-09-24T04:47:39.009Z,96.23
2018-09-24T04:48:39.043Z,97.36
2018-09-24T04:49:38.953Z,96.95
2018-09-24T04:50:38.963Z,96.84
2018-09-24T04:51:38.926Z,96.58
2018-09-24T04:52:38.948Z,96.48
2018-09-24T04:53:38.903Z,97.41
2018-09-24T04:54:38.895Z,96.99
2018-09-24T04:55:38.888Z,97.20
2018-09-24T04:56:38.871Z,97.26
2018-09-24T04:57:38.871Z,97.41
2018-09-24T04:58:38.931Z,96.84
2018-09-24T04:59:38.849Z,96.23
2018-09-24T05:00:38.825Z,96.23
2018-09-24T05:01:38.818Z,96.33
2018-09-24T05:02:38.816Z,96.33
2018-09-24T05:03:38.809Z,95.92
2018-09-24T05:04:38.852Z,96.33
2018-09-24T05:05:38.779Z,96.02
2018-09-24T05:06:38.772Z,96.12
2018-09-24T05:07:38.866Z,95.92
2018-09-24T05:08:38.741Z,95.92
2018-09-24T05:09:38.732Z,95.81
2018-09-24T05:10:38.761Z,95.71
2018-09-24T05:11:38.711Z,95.81
2018-09-24T05:12:38.699Z,96.23
2018-09-24T05:13:38.701Z,95.30
2018-09-24T05:14:38.691Z,94.57
2018-09-24T05:15:38.690Z,95.20
2018-09-24T05:16:38.727Z,95.25
2018-09-24T05:17:38.657Z,95.09
2018-09-24T05:18:38.644Z,95.50
2018-09-24T05:19:38.626Z,95.20
2018-09-24T05:20:38.623Z,94.78
2018-09-24T05:21:38.650Z,94.74
2018-09-24T05:22:38.636Z,95.20
2018-09-24T05:23:38.592Z,95.30
2018-09-24T05:24:38.583Z,95.25
2018-09-24T05:25:38.560Z,95.15
2018-09-24T05:26:38.551Z,95.20
2018-09-24T05:27:38.555Z,95.15
2018-09-24T05:28:38.594Z,94.68
2018-09-24T05:29:38.526Z,94.89
2018-09-24T05:30:38.516Z,95.30
2018-09-24T05:31:38.495Z,94.64
2018-09-24T05:32:38.483Z,94.95
2018-09-24T05:33:38.484Z,95.15
2018-09-24T05:34:38.761Z,95.30
2018-09-24T05:35:38.484Z,94.43
2018-09-24T05:36:38.455Z,94.64
2018-09-24T05:37:38.442Z,95.15
2018-09-24T05:38:38.455Z,94.43
2018-09-24T05:39:38.405Z,94.64
2018-09-24T05:40:38.430Z,95.15
2018-09-24T05:41:38.391Z,94.74
2018-09-24T05:42:38.407Z,94.43
2018-09-24T05:43:38.367Z,94.53
2018-09-24T05:44:38.366Z,94.53
2018-09-24T05:45:38.344Z,93.87
2018-09-24T05:46:38.367Z,93.66
2018-09-24T05:47:38.318Z,93.46
2018-09-24T05:48:38.314Z,94.08
2018-09-24T05:49:38.331Z,94.38
2018-09-24T05:50:38.289Z,93.35
2018-09-24T05:51:38.294Z,93.56
2018-09-24T05:52:38.299Z,93.46
2018-09-24T05:53:38.269Z,93.41
2018-09-24T05:54:38.238Z,93.31
2018-09-24T05:55:38.229Z,92.84
2018-09-24T05:56:38.227Z,93.35
2018-09-24T05:57:38.208Z,93.21
2018-09-24T05:58:38.270Z,92.84
2018-09-24T05:59:38.192Z,93.21
2018-09-24T06:00:38.177Z,93.31
2018-09-24T06:01:38.163Z,93.01
2018-09-24T06:02:38.170Z,93.11
2018-09-24T06:03:38.143Z,92.90
2018-09-24T06:04:38.238Z,92.59
2018-09-24T06:05:38.126Z,92.59
2018-09-24T06:06:38.101Z,92.44
2018-09-24T06:07:38.125Z,92.55
2018-09-24T06:08:38.087Z,92.55
2018-09-24T06:09:38.091Z,92.34
2018-09-24T06:10:38.097Z,92.03
2018-09-24T06:11:38.053Z,92.65
2018-09-24T06:12:38.061Z,92.44
2018-09-24T06:13:38.093Z,92.03
2018-09-24T06:14:38.022Z,92.34
2018-09-24T06:15:38.028Z,92.14
2018-09-24T06:16:38.045Z,91.78
2018-09-24T06:17:38.032Z,91.68
2018-09-24T06:18:38.001Z,91.58
2018-09-24T06:19:37.967Z,92.10
2018-09-24T06:20:37.989Z,92.40
2018-09-24T06:21:37.940Z,92.30
2018-09-24T06:22:37.964Z,92.30
2018-09-24T06:23:37.927Z,91.89
2018-09-24T06:24:37.944Z,91.38
2018-09-24T06:25:37.907Z,91.99
2018-09-24T06:26:37.883Z,92.40
2018-09-24T06:27:37.911Z,91.95
2018-09-24T06:28:37.911Z,91.68
2018-09-24T06:29:37.884Z,91.23
2018-09-24T06:30:37.851Z,91.02
2018-09-24T06:31:37.830Z,90.72
2018-09-24T06:32:37.818Z,91.53
2018-09-24T06:33:37.844Z,90.41
2018-09-24T06:34:37.842Z,90.61
2018-09-24T06:35:37.786Z,91.02
2018-09-24T06:36:37.801Z,90.36
2018-09-24T06:37:37.776Z,89.64
2018-09-24T06:38:37.771Z,90.16
2018-09-24T06:39:37.755Z,90.36
2018-09-24T06:40:37.778Z,90.88
2018-09-24T06:41:37.722Z,90.36
2018-09-24T06:42:37.725Z,90.06
2018-09-24T06:43:37.713Z,89.75
2018-09-24T06:44:37.703Z,89.70
2018-09-24T06:45:37.704Z,89.54
2018-09-24T06:46:37.703Z,89.29
2018-09-24T06:47:37.694Z,89.50
2018-09-24T06:48:37.698Z,89.70
2018-09-24T06:49:37.668Z,89.60
2018-09-24T06:50:37.629Z,90.12
2018-09-24T06:51:37.629Z,90.01
2018-09-24T06:52:37.653Z,87.51
2018-09-24T06:53:37.600Z,88.23
2018-09-24T06:54:37.633Z,88.43
2018-09-24T06:55:37.573Z,88.43
2018-09-24T06:56:37.559Z,88.53
2018-09-24T06:57:37.565Z,88.70
2018-09-24T06:58:37.577Z,88.53
2018-09-24T06:59:37.582Z,88.49
2018-09-24T07:00:37.515Z,87.37
2018-09-24T07:01:37.511Z,87.67
2018-09-24T07:02:37.535Z,87.77
2018-09-24T07:03:37.479Z,88.08
2018-09-24T07:04:37.505Z,86.54
2018-09-24T07:05:37.518Z,86.40
2018-09-24T07:06:37.445Z,87.02
2018-09-24T07:07:37.435Z,86.50
2018-09-24T07:08:37.422Z,86.71
2018-09-24T07:09:37.409Z,87.32
2018-09-24T07:10:37.444Z,86.71
2018-09-24T07:11:37.419Z,86.36
2018-09-24T07:12:37.381Z,86.15
2018-09-24T07:13:37.368Z,86.36
2018-09-24T07:14:37.350Z,86.77
2018-09-24T07:15:37.338Z,86.25
2018-09-24T07:16:37.365Z,86.15
2018-09-24T07:17:37.320Z,86.25
2018-09-24T07:18:37.326Z,86.46
2018-09-24T07:19:37.306Z,86.46
2018-09-24T07:20:37.290Z,86.22
2018-09-24T07:21:37.278Z,85.60
2018-09-24T07:22:37.301Z,84.78
2018-09-24T07:23:37.254Z,84.88
2018-09-24T07:24:37.243Z,84.68
2018-09-24T07:25:37.224Z,85.30
2018-09-24T07:26:37.223Z,84.88
2018-09-24T07:27:37.243Z,85.19
2018-09-24T07:28:37.235Z,84.37
2018-09-24T07:29:37.182Z,84.58
2018-09-24T07:30:37.200Z,85.30
2018-09-24T07:31:37.172Z,84.99
2018-09-24T07:32:37.158Z,86.32
2018-09-24T07:33:37.161Z,86.01
2018-09-24T07:34:37.218Z,85.71
2018-09-24T07:35:37.123Z,86.52
2018-09-24T07:36:37.128Z,86.42
2018-09-24T07:37:37.099Z,85.77
2018-09-24T07:38:37.091Z,85.46
2018-09-24T07:39:37.092Z,84.74
2018-09-24T07:40:37.114Z,84.50
2018-09-24T07:41:37.056Z,83.98
2018-09-24T07:42:37.054Z,83.37
2018-09-24T07:43:37.108Z,83.68
2018-09-24T07:44:37.017Z,83.37
2018-09-24T07:45:37.013Z,83.13
2018-09-24T07:46:37.032Z,82.10
2018-09-24T07:47:37.019Z,83.44
2018-09-24T07:48:36.974Z,83.84
2018-09-24T07:49:36.959Z,83.09
2018-09-24T07:50:36.948Z,82.98
2018-09-24T07:51:36.948Z,82.68
2018-09-24T07:52:36.980Z,82.54
2018-09-24T07:53:36.913Z,80.29
2018-09-24T07:54:36.917Z,78.04
2018-09-24T07:55:37.061Z,77.53
2018-09-24T07:56:36.891Z,78.34
2018-09-24T07:57:36.874Z,78.96
2018-09-24T07:58:36.931Z,79.47
2018-09-24T07:59:36.853Z,78.96
2018-09-24T08:00:36.839Z,77.90
2018-09-24T08:01:36.846Z,79.43
2018-09-24T08:02:36.813Z,79.74
2018-09-24T08:03:36.804Z,79.19
2018-09-24T08:04:36.837Z,78.48
2018-09-24T08:05:36.807Z,78.17
2018-09-24T08:06:36.778Z,76.74
2018-09-24T08:07:36.847Z,77.76
2018-09-24T08:08:36.751Z,77.76
2018-09-24T08:09:36.738Z,77.15
2018-09-24T08:10:36.755Z,77.56
2018-09-24T08:11:36.716Z,74.97
2018-09-24T08:12:36.716Z,75.68
2018-09-24T08:13:36.691Z,75.58
2018-09-24T08:14:36.737Z,76.19
2018-09-24T08:15:36.683Z,75.99
2018-09-24T08:16:36.700Z,76.09
2018-09-24T08:17:36.659Z,75.78
2018-09-24T08:18:36.661Z,76.60
2018-09-24T08:19:36.633Z,75.37
2018-09-24T08:20:36.623Z,74.73
2018-09-24T08:21:36.620Z,75.71
2018-09-24T08:22:37.327Z,76.84
2018-09-24T08:23:36.589Z,75.20
2018-09-24T08:24:36.608Z,73.67
2018-09-24T08:25:36.563Z,72.31
2018-09-24T08:26:36.555Z,73.47
2018-09-24T08:27:36.537Z,72.45
2018-09-24T08:28:36.576Z,73.06
2018-09-24T08:29:36.517Z,72.14
2018-09-24T08:30:36.521Z,72.86
2018-09-24T08:31:36.493Z,74.73
2018-09-24T08:32:36.511Z,72.17
2018-09-24T08:33:36.470Z,72.69
2018-09-24T08:34:36.500Z,75.37
2018-09-24T08:35:36.450Z,74.35
2018-09-24T08:36:36.468Z,74.66
2018-09-24T08:37:36.455Z,75.13
2018-09-24T08:38:36.418Z,73.91
2018-09-24T08:39:36.407Z,74.22
2018-09-24T08:40:36.436Z,73.30
2018-09-24T08:41:36.382Z,74.59
2018-09-24T08:42:36.386Z,75.10
2018-09-24T08:43:36.378Z,74.08
2018-09-24T08:44:36.430Z,74.38
2018-09-24T08:45:36.347Z,73.54
2018-09-24T08:46:36.361Z,73.54
2018-09-24T08:47:36.326Z,75.03
2018-09-24T08:48:36.322Z,74.21
2018-09-24T08:49:36.321Z,72.58
2018-09-24T08:50:36.283Z,72.08
2018-09-24T08:51:36.288Z,70.68
2018-09-24T08:52:36.292Z,71.77
2018-09-24T08:53:36.252Z,73.50
2018-09-24T08:54:36.239Z,74.28
2018-09-24T08:55:36.267Z,72.38
2018-09-24T08:56:36.278Z,72.04
2018-09-24T08:57:36.213Z,69.70
2018-09-24T08:58:36.278Z,69.29
2018-09-24T08:59:36.184Z,68.68
2018-09-24T09:00:36.195Z,68.91
2018-09-24T09:01:36.166Z,70.24
2018-09-24T09:02:36.174Z,69.90
2018-09-24T09:03:36.145Z,70.72
2018-09-24T09:04:36.151Z,70.61
2018-09-24T09:05:36.119Z,72.31
2018-09-24T09:06:36.105Z,70.58
2018-09-24T09:07:36.102Z,69.76
2018-09-24T09:08:36.077Z,69.36
2018-09-24T09:09:36.064Z,70.14
2018-09-24T09:10:36.091Z,68.75
2018-09-24T09:11:36.048Z,67.83
2018-09-24T09:12:36.056Z,64.78
2018-09-24T09:13:36.034Z,67.02
2018-09-24T09:14:36.051Z,68.75
2018-09-24T09:15:36.016Z,68.75
2018-09-24T09:16:36.028Z,68.10
2018-09-24T09:17:35.987Z,66.71
2018-09-24T09:18:36.015Z,66.58
2018-09-24T09:19:35.966Z,67.08
2018-09-24T09:20:35.956Z,66.58
2018-09-24T09:21:35.937Z,69.23
2018-09-24T09:22:35.951Z,66.99
2018-09-24T09:23:35.915Z,67.08
2018-09-24T09:24:35.906Z,67.69
2018-09-24T09:25:35.891Z,66.27
2018-09-24T09:26:35.894Z,67.87
2018-09-24T09:27:35.862Z,67.57
2018-09-24T09:28:35.910Z,67.05
2018-09-24T09:29:35.894Z,65.63
2018-09-24T09:30:35.845Z,65.70
2018-09-24T09:31:35.829Z,62.88
2018-09-24T09:32:35.815Z,65.22
2018-09-24T09:33:35.804Z,64.41
2018-09-24T09:34:35.826Z,65.30
2018-09-24T09:35:35.771Z,66.85
2018-09-24T09:36:35.758Z,66.96
2018-09-24T09:37:35.751Z,65.02
2018-09-24T09:38:35.742Z,64.79
2018-09-24T09:39:35.761Z,63.97
2018-09-24T09:40:35.762Z,66.14
2018-09-24T09:41:35.705Z,66.00
2018-09-24T09:42:35.694Z,66.61
2018-09-24T09:43:35.689Z,67.60
2018-09-24T09:44:35.680Z,65.77
2018-09-24T09:45:35.659Z,67.30
2018-09-24T09:46:35.712Z,66.08
2018-09-24T09:47:35.673Z,65.77
2018-09-24T09:48:35.635Z,66.46
2018-09-24T09:49:35.615Z,62.46
2018-09-24T09:50:35.640Z,62.49
2018-09-24T09:51:35.604Z,63.37
2018-09-24T09:52:35.618Z,61.55
2018-09-24T09:53:35.583Z,62.87
2018-09-24T09:54:35.553Z,62.43
2018-09-24T09:55:35.553Z,63.85
2018-09-24T09:56:35.535Z,60.30
2018-09-24T09:57:35.570Z,60.88
2018-09-24T09:58:35.542Z,60.58
2018-09-24T09:59:35.515Z,58.98
2018-09-24T10:00:35.516Z,60.91
2018-09-24T10:01:35.489Z,59.59
2018-09-24T10:02:35.474Z,60.13
2018-09-24T10:03:35.464Z,61.01
2018-09-24T10:04:35.483Z,59.28
2018-09-24T10:05:35.441Z,57.56
2018-09-24T10:06:35.463Z,58.67
2018-09-24T10:07:35.423Z,60.58
2018-09-24T10:08:35.406Z,59.36
2018-09-24T10:09:35.413Z,58.45
2018-09-24T10:10:35.435Z,57.73
2018-09-24T10:11:35.380Z,56.29
2018-09-24T10:12:35.360Z,56.01
2018-09-24T10:13:35.359Z,55.96
2018-09-24T10:14:35.346Z,55.68
2018-09-24T10:15:35.326Z,56.79
2018-09-24T10:16:35.397Z,57.84
2018-09-24T10:17:35.298Z,57.73
2018-09-24T10:18:35.293Z,57.23
2018-09-24T10:19:35.291Z,57.97
2018-09-24T10:20:35.295Z,58.20
2018-09-24T10:21:35.268Z,59.31
2018-09-24T10:22:35.327Z,59.77
2018-09-24T10:23:35.233Z,61.53
2018-09-24T10:24:35.222Z,65.02
2018-09-24T10:25:35.220Z,67.60
2018-09-24T10:26:35.234Z,71.94
2018-09-24T10:27:35.204Z,74.45
2018-09-24T10:28:35.219Z,75.00
2018-09-24T10:29:35.167Z,75.34
2018-09-24T10:30:35.217Z,75.07
2018-09-24T10:31:35.146Z,77.52
2018-09-24T10:32:35.139Z,79.29
2018-09-24T10:33:35.199Z,81.65
2018-09-24T10:34:35.157Z,81.13
2018-09-24T10:35:35.105Z,83.01
2018-09-24T10:36:35.105Z,83.36
2018-09-24T10:37:35.079Z,82.75
2018-09-24T10:38:35.078Z,82.13
2018-09-24T10:39:35.091Z,81.45
2018-09-24T10:40:35.110Z,83.66
2018-09-24T10:41:35.050Z,81.21
2018-09-24T10:42:35.014Z,80.90
2018-09-24T10:43:35.022Z,81.51
2018-09-24T10:44:35.039Z,80.80
2018-09-24T10:45:34.988Z,79.74
2018-09-24T10:46:35.016Z,80.87
2018-09-24T10:47:34.976Z,80.32
2018-09-24T10:48:34.966Z,79.13
2018-09-24T10:49:34.950Z,80.32
2018-09-24T10:50:34.982Z,79.91
2018-09-24T10:51:34.924Z,79.46
2018-09-24T10:52:34.950Z,78.44
2018-09-24T10:53:34.911Z,80.38
2018-09-24T10:54:34.887Z,79.83
2018-09-24T10:55:34.889Z,78.88
2018-09-24T10:56:34.866Z,80.71
2018-09-24T10:57:34.859Z,79.25
2018-09-24T10:58:34.881Z,78.12
2018-09-24T10:59:34.860Z,77.51
2018-09-24T11:00:34.825Z,77.98
2018-09-24T11:01:34.818Z,77.58
2018-09-24T11:02:34.798Z,77.07
2018-09-24T11:03:34.830Z,78.05
2018-09-24T11:04:34.810Z,79.17
2018-09-24T11:05:34.771Z,77.34
2018-09-24T11:06:34.768Z,78.73
2018-09-24T11:07:34.744Z,76.15
2018-09-24T11:08:34.728Z,75.13
2018-09-24T11:09:34.727Z,73.71
2018-09-24T11:10:34.756Z,73.60
2018-09-24T11:11:34.705Z,74.89
2018-09-24T11:12:34.690Z,73.87
2018-09-24T11:13:34.676Z,73.16
2018-09-24T11:14:34.663Z,71.53
2018-09-24T11:15:34.664Z,71.50
2018-09-24T11:16:34.917Z,72.11
2018-09-24T11:17:34.809Z,72.21
2018-09-24T11:18:34.622Z,70.96
2018-09-24T11:19:34.623Z,69.77
2018-09-24T11:20:34.605Z,69.94
2018-09-24T11:21:34.586Z,69.20
2018-09-24T11:22:34.618Z,70.31
2018-09-24T11:23:34.581Z,70.75
2018-09-24T11:24:34.556Z,72.17
2018-09-24T11:25:34.553Z,70.48
2018-09-24T11:26:34.531Z,72.99
2018-09-24T11:27:34.518Z,68.72
2018-09-24T11:28:34.536Z,68.62
2018-09-24T11:29:34.518Z,69.57
2018-09-24T11:30:34.485Z,67.22
2018-09-24T11:31:34.543Z,65.77
2018-09-24T11:32:34.467Z,65.57
2018-09-24T11:33:34.448Z,66.46
2018-09-24T11:34:34.495Z,65.71
2018-09-24T11:35:34.440Z,63.85
2018-09-24T11:36:34.430Z,64.09
2018-09-24T11:37:34.423Z,64.59
2018-09-24T11:38:34.424Z,65.10
2018-09-24T11:39:34.383Z,61.24
2018-09-24T11:40:34.425Z,59.62
2018-09-24T11:41:34.373Z,62.84
2018-09-24T11:42:34.357Z,63.17
2018-09-24T11:43:34.358Z,61.32
2018-09-24T11:44:34.324Z,61.41
2018-09-24T11:45:34.324Z,61.11
2018-09-24T11:46:34.668Z,63.62
2018-09-24T11:47:34.306Z,60.68
2018-09-24T11:48:34.284Z,59.23
2018-09-24T11:49:34.289Z,58.62
2018-09-24T11:50:34.256Z,57.84
2018-09-24T11:51:34.254Z,57.84
2018-09-24T11:52:34.283Z,58.04
2018-09-24T11:53:34.230Z,58.75
2018-09-24T11:54:34.224Z,59.41
2018-09-24T11:55:34.213Z,60.11
2018-09-24T11:56:34.202Z,59.27
2018-09-24T11:57:34.203Z,58.34
2018-09-24T11:58:34.220Z,57.22
2018-09-24T11:59:34.162Z,59.52
2018-09-24T12:00:34.174Z,58.00
2018-09-24T12:01:34.144Z,55.98
2018-09-24T12:02:34.126Z,55.77
2018-09-24T12:03:34.111Z,54.86
2018-09-24T12:04:34.142Z,55.68
2018-09-24T12:05:34.169Z,54.56
2018-09-24T12:06:34.079Z,54.76
2018-09-24T12:07:34.068Z,54.03
2018-09-24T12:08:34.078Z,56.33
2018-09-24T12:09:34.047Z,55.52
2018-09-24T12:10:34.099Z,56.18
2018-09-24T12:11:34.078Z,55.52
2018-09-24T12:12:34.016Z,52.06
2018-09-24T12:13:33.999Z,53.42
2018-09-24T12:14:33.989Z,51.98
2018-09-24T12:15:33.983Z,51.68
2018-09-24T12:16:34.009Z,51.45
2018-09-24T12:17:33.989Z,50.10
2018-09-24T12:18:33.954Z,49.87
2018-09-24T12:19:33.933Z,50.95
2018-09-24T12:20:33.946Z,49.89
2018-09-24T12:21:33.932Z,50.82
2018-09-24T12:22:33.950Z,49.90
2018-09-24T12:23:33.894Z,46.06
2018-09-24T12:24:33.893Z,47.74
2018-09-24T12:25:33.874Z,50.04
2018-09-24T12:26:33.876Z,51.60
2018-09-24T12:27:33.849Z,52.19
2018-09-24T12:28:33.873Z,54.56
2018-09-24T12:29:33.823Z,56.01
2018-09-24T12:30:33.812Z,56.64
2018-09-24T12:31:33.833Z,56.59
2018-09-24T12:32:33.787Z,56.49
2018-09-24T12:33:33.779Z,56.92
2018-09-24T12:34:33.804Z,56.62
2018-09-24T12:35:33.757Z,57.03
2018-09-24T12:36:33.756Z,58.34
2018-09-24T12:37:33.734Z,58.85
2018-09-24T12:38:33.757Z,59.23
2018-09-24T12:39:33.717Z,59.05
2018-09-24T12:40:33.755Z,56.62
2018-09-24T12:41:33.691Z,56.54
2018-09-24T12:42:33.691Z,56.74
2018-09-24T12:43:33.692Z,59.59
2018-09-24T12:44:33.660Z,64.18
2018-09-24T12:45:33.643Z,68.72
2018-09-24T12:46:34.228Z,71.12
2018-09-24T12:47:33.644Z,73.60
2018-09-24T12:48:33.613Z,75.57
2018-09-24T12:49:33.607Z,77.14
2018-09-24T12:50:33.594Z,79.32
2018-09-24T12:51:33.602Z,81.04
2018-09-24T12:52:33.609Z,80.80